Time;durP1;ratioP1;P1;durP2;ratioP2;P2;SDS_P1;SDS_P2;PMS_P1;PMS_P2;Temp;Humidity;BMP_temperature;BMP_pressure;BME280_temperature;BME280_humidity;BME280_pressure;Samples;Min_cycle;Max_cycle;Signal;HPM_P1;HPM_P2
2023/01/01 00:00:38;;;;;;;;;;;;;;;;;;5015404;28;7000;-71
2023/01/01 00:03:03;;;;;;;;;;;;;;;;;;5015253;28;7150;-71
2023/01/01 00:05:43;;;;;;;;;;;;;;;;;;5015343;28;7184;-71
2023/01/01 00:08:08;;;;;;;;;;;;;;;;;;5015107;28;7058;-71
2023/01/01 00:13:38;;;;;;;;;;;;;;;;;;5015108;28;6755;-71
2023/01/01 00:16:05;;;;;;;;;;;;;;;;;;5015084;28;7172;-71
2023/01/01 00:18:53;;;;;;;;;;;;;;;;;;5014823;28;7445;-71
2023/01/01 00:21:19;;;;;;;;;;;;;;;;;;5005484;28;6938;-71
2023/01/01 00:23:44;;;;;;;;;;;;;;;;;;4995436;28;7157;-71
2023/01/01 00:26:38;;;;;;;;;;;;;;;;;;4995418;28;6938;-71
2023/01/01 00:29:04;;;;;;;;;;;;;;;;;;4995432;28;7442;-71
2023/01/01 00:31:30;;;;;;;;;;;;;;;;;;5011531;28;7163;-71
2023/01/01 00:33:56;;;;;;;;;;;;;;;;;;5015173;28;7206;-71
2023/01/01 00:36:58;;;;;;;;;;;;;;;;;;5014647;28;7190;-71
2023/01/01 00:39:23;;;;;;;;;;;;;;;;;;4997087;28;7336;-71
2023/01/01 00:41:49;;;;;;;;;;;;;;;;;;5014884;28;7202;-71
2023/01/01 00:44:14;;;;;;;;;;;;;;;;;;5014354;28;7510;-71
2023/01/01 00:49:43;;;;;;;;;;;;;;;;;;5014280;28;6935;-70
2023/01/01 00:52:08;;;;;;;;;;;;;;;;;;5007185;28;7099;-70
2023/01/01 00:54:34;;;;;;;;;;;;;;;;;;4999573;28;7172;-68
2023/01/01 00:56:59;;;;;;;;;;;;;;;;;;4994787;28;7198;-68
2023/01/01 00:59:34;;;;;;;;;;;;;;;;;;5003210;28;7264;-68
2023/01/01 01:01:59;;;;;;;;;;;;;;;;;;4996931;28;6892;-68
2023/01/01 01:04:28;;;;;;;;;;;;;;;;;;4993101;28;8401;-68
2023/01/01 01:06:54;;;;;;;;;;;;;;;;;;5007321;28;6942;-68
2023/01/01 01:09:35;;;;;;;;;;;;;;;;;;4995198;28;7200;-68
2023/01/01 01:12:01;;;;;;;;;;;;;;;;;;4994954;28;7159;-68
2023/01/01 01:14:26;;;;;;;;;;;;;;;;;;4994686;28;7212;-68
2023/01/01 01:17:11;;;;;;;;;;;;;;;;;;4994963;28;7476;-68
2023/01/01 01:22:39;;;;;;;;;;;;;;;;;;4996715;28;6908;-68
2023/01/01 01:28:21;;;;;;;;;;;;;;;;;;4998374;28;6693;-68
2023/01/01 01:30:46;;;;;;;;;;;;;;;;;;4998347;28;7196;-69
2023/01/01 01:33:12;;;;;;;;;;;;;;;;;;4998444;28;7096;-68
2023/01/01 01:36:08;;;;;;;;;;;;;;;;;;4998409;28;7286;-68
2023/01/01 01:38:34;;;;;;;;;;;;;;;;;;4998434;28;8110;-68
2023/01/01 01:41:20;;;;;;;;;;;;;;;;;;4998198;28;7049;-68
2023/01/01 01:43:51;;;;;;;;;;;;;;;;;;4997976;28;7455;-68
2023/01/01 01:49:31;;;;;;;;;;;;;;;;;;4997976;28;6691;-68
2023/01/01 01:51:59;;;;;;;;;;;;;;;;;;4997732;28;7119;-68
2023/01/01 01:54:26;;;;;;;;;;;;;;;;;;4997753;28;7210;-68
2023/01/01 01:56:52;;;;;;;;;;;;;;;;;;4998020;28;6917;-68
2023/01/01 01:59:32;;;;;;;;;;;;;;;;;;4997946;28;7208;-68
2023/01/01 02:01:59;;;;;;;;;;;;;;;;;;4997737;28;7203;-69
2023/01/01 02:04:41;;;;;;;;;;;;;;;;;;4997896;28;7213;-68
2023/01/01 02:07:07;;;;;;;;;;;;;;;;;;4998414;28;7133;-69
2023/01/01 02:09:33;;;;;;;;;;;;;;;;;;4997696;28;6953;-68
2023/01/01 02:11:59;;;;;;;;;;;;;;;;;;4997718;28;7219;-68
2023/01/01 02:14:24;;;;;;;;;;;;;;;;;;4980082;28;7172;-68
2023/01/01 02:17:16;;;;;;;;;;;;;;;;;;4997604;28;7156;-69
2023/01/01 02:29:08;;;;;;;;;;;;;;;;;;4997204;28;7434;-71
2023/01/01 02:31:38;;;;;;;;;;;;;;;;;;4997277;28;7227;-71
2023/01/01 02:37:17;;;;;;;;;;;;;;;;;;4997181;28;6992;-71
2023/01/01 02:39:55;;;;;;;;;;;;;;;;;;4997139;28;7198;-71
2023/01/01 02:42:24;;;;;;;;;;;;;;;;;;4997191;28;7145;-71
2023/01/01 02:44:53;;;;;;;;;;;;;;;;;;4997037;28;7285;-71
2023/01/01 02:50:27;;;;;;;;;;;;;;;;;;4996657;28;6689;-70
2023/01/01 02:53:25;;;;;;;;;;;;;;;;;;4996958;28;7392;-70
2023/01/01 02:55:50;;;;;;;;;;;;;;;;;;4996933;28;8959;-71
2023/01/01 03:01:19;;;;;;;;;;;;;;;;;;5016664;28;7042;-71
2023/01/01 03:06:53;;;;;;;;;;;;;;;;;;5016113;28;6993;-71
2023/01/01 03:09:22;;;;;;;;;;;;;;;;;;5016105;28;7411;-71
2023/01/01 03:12:06;;;;;;;;;;;;;;;;;;5016045;28;7146;-71
2023/01/01 03:14:34;;;;;;;;;;;;;;;;;;5016475;28;7224;-71
2023/01/01 03:17:25;;;;;;;;;;;;;;;;;;5016174;28;7623;-71
2023/01/01 03:22:58;;;;;;;;;;;;;;;;;;5015991;28;6698;-71
2023/01/01 03:34:30;;;;;;;;;;;;;;;;;;5015915;28;6687;-71
2023/01/01 03:36:58;;;;;;;;;;;;;;;;;;5015717;28;7480;-71
2023/01/01 03:42:40;;;;;;;;;;;;;;;;;;5015848;28;6984;-71
2023/01/01 03:45:16;;;;;;;;;;;;;;;;;;5015433;28;7120;-71
2023/01/01 03:47:42;;;;;;;;;;;;;;;;;;5015558;28;7183;-71
2023/01/01 03:53:21;;;;;;;;;;;;;;;;;;5015131;28;7071;-71
2023/01/01 03:58:58;;;;;;;;;;;;;;;;;;5015187;28;7031;-71
2023/01/01 04:01:34;;;;;;;;;;;;;;;;;;5015100;28;7080;-71
2023/01/01 04:04:02;;;;;;;;;;;;;;;;;;5015335;28;6929;-71
2023/01/01 04:06:28;;;;;;;;;;;;;;;;;;5015009;28;6936;-71
2023/01/01 04:08:57;;;;;;;;;;;;;;;;;;5015124;28;7130;-71
2023/01/01 04:14:40;;;;;;;;;;;;;;;;;;5012863;28;6684;-71
2023/01/01 04:17:09;;;;;;;;;;;;;;;;;;5014835;28;8096;-71
2023/01/01 04:19:35;;;;;;;;;;;;;;;;;;5015131;28;7392;-71
2023/01/01 04:22:01;;;;;;;;;;;;;;;;;;5015036;28;7343;-71
2023/01/01 04:27:30;;;;;;;;;;;;;;;;;;5014870;28;6932;-71
2023/01/01 04:29:55;;;;;;;;;;;;;;;;;;5014878;28;7245;-71
2023/01/01 04:32:27;;;;;;;;;;;;;;;;;;5014622;28;7207;-71
2023/01/01 04:34:52;;;;;;;;;;;;;;;;;;5014950;28;7202;-71
2023/01/01 04:37:18;;;;;;;;;;;;;;;;;;5014996;28;7066;-71
2023/01/01 04:39:51;;;;;;;;;;;;;;;;;;5014535;28;7219;-71
2023/01/01 04:42:17;;;;;;;;;;;;;;;;;;5015588;28;7169;-71
2023/01/01 04:44:47;;;;;;;;;;;;;;;;;;5014600;28;7171;-71
2023/01/01 04:47:13;;;;;;;;;;;;;;;;;;5015383;28;7078;-71
2023/01/01 04:49:41;;;;;;;;;;;;;;;;;;5015018;28;7135;-71
2023/01/01 04:52:07;;;;;;;;;;;;;;;;;;5014649;28;7186;-71
2023/01/01 04:54:44;;;;;;;;;;;;;;;;;;5014806;28;7168;-71
2023/01/01 04:57:43;;;;;;;;;;;;;;;;;;5015936;28;7186;-71
2023/01/01 05:00:09;;;;;;;;;;;;;;;;;;5018353;28;7224;-71
2023/01/01 05:08:48;;;;;;;;;;;;;;;;;;5018266;28;6695;-71
2023/01/01 05:11:17;;;;;;;;;;;;;;;;;;5018975;28;7073;-71
2023/01/01 05:13:44;;;;;;;;;;;;;;;;;;5017863;28;7131;-71
2023/01/01 05:16:12;;;;;;;;;;;;;;;;;;5018282;28;7016;-71
2023/01/01 05:18:38;;;;;;;;;;;;;;;;;;5018098;28;7183;-71
2023/01/01 05:21:23;;;;;;;;;;;;;;;;;;5018360;28;7056;-71
2023/01/01 05:23:52;;;;;;;;;;;;;;;;;;5017931;28;6967;-71
2023/01/01 05:32:24;;;;;;;;;;;;;;;;;;5017833;28;6984;-70
2023/01/01 05:34:50;;;;;;;;;;;;;;;;;;5017762;28;7333;-71
2023/01/01 05:37:16;;;;;;;;;;;;;;;;;;5018489;28;7166;-71
2023/01/01 05:42:46;;;;;;;;;;;;;;;;;;5017538;28;6989;-71
2023/01/01 05:45:12;;;;;;;;;;;;;;;;;;5017588;28;7416;-71
2023/01/01 05:47:37;;;;;;;;;;;;;;;;;;5017821;28;7141;-71
2023/01/01 05:50:03;;;;;;;;;;;;;;;;;;5017412;28;6994;-71
2023/01/01 05:52:28;;;;;;;;;;;;;;;;;;5017647;28;7581;-70
2023/01/01 05:57:56;;;;;;;;;;;;;;;;;;5008581;28;7428;-71
2023/01/01 06:00:27;;;;;;;;;;;;;;;;;;4998032;28;7164;-71
2023/01/01 06:02:53;;;;;;;;;;;;;;;;;;4997920;28;7085;-71
2023/01/01 06:05:19;;;;;;;;;;;;;;;;;;5002696;28;7204;-71
2023/01/01 06:07:51;;;;;;;;;;;;;;;;;;5017428;28;7206;-71
2023/01/01 06:10:17;;;;;;;;;;;;;;;;;;4996907;28;7431;-70
2023/01/01 06:12:57;;;;;;;;;;;;;;;;;;4997631;28;7129;-70
2023/01/01 06:15:23;;;;;;;;;;;;;;;;;;4995297;28;6944;-70
2023/01/01 06:21:13;;;;;;;;;;;;;;;;;;5001724;28;6945;-70
2023/01/01 06:23:40;;;;;;;;;;;;;;;;;;5017126;28;7468;-70
2023/01/01 06:26:07;;;;;;;;;;;;;;;;;;5016874;28;7185;-70
2023/01/01 06:28:34;;;;;;;;;;;;;;;;;;5017306;28;7268;-70
2023/01/01 06:31:00;;;;;;;;;;;;;;;;;;5017038;28;7325;-70
2023/01/01 06:34:01;;;;;;;;;;;;;;;;;;5016625;28;7220;-70
2023/01/01 06:36:27;;;;;;;;;;;;;;;;;;5016964;28;7259;-70
2023/01/01 06:38:57;;;;;;;;;;;;;;;;;;5016918;28;7172;-70
2023/01/01 06:41:24;;;;;;;;;;;;;;;;;;5016678;28;7133;-70
2023/01/01 06:43:50;;;;;;;;;;;;;;;;;;5013957;28;7281;-70
2023/01/01 06:49:18;;;;;;;;;;;;;;;;;;5016379;28;6902;-70
2023/01/01 06:52:01;;;;;;;;;;;;;;;;;;5016474;28;6960;-70
2023/01/01 06:54:26;;;;;;;;;;;;;;;;;;5016594;28;6992;-75
2023/01/01 06:59:51;;;;;;;;;;;;;;;;;;5016642;28;7020;-73
2023/01/01 07:02:22;;;;;;;;;;;;;;;;;;5016344;28;7269;-73
2023/01/01 07:07:49;;;;;;;;;;;;;;;;;;5015518;28;7168;-70
2023/01/01 07:13:06;;;;;;;;;;;;;;;;;;5016359;28;7082;-70
2023/01/01 07:15:31;;;;;;;;;;;;;;;;;;4994749;28;8444;-70
2023/01/01 07:21:28;;;;;;;;;;;;;;;;;;4996364;28;6904;-70
2023/01/01 07:23:56;;;;;;;;;;;;;;;;;;4994965;28;7170;-70
2023/01/01 07:26:22;;;;;;;;;;;;;;;;;;4996391;28;7375;-70
2023/01/01 07:28:54;;;;;;;;;;;;;;;;;;4996356;28;7063;-70
2023/01/01 07:31:20;;;;;;;;;;;;;;;;;;4996105;28;7191;-70
2023/01/01 07:33:54;;;;;;;;;;;;;;;;;;4996363;28;7124;-70
2023/01/01 07:36:20;;;;;;;;;;;;;;;;;;4996310;28;7161;-70
2023/01/01 07:44:53;;;;;;;;;;;;;;;;;;4996006;28;6936;-70
2023/01/01 07:50:20;;;;;;;;;;;;;;;;;;4995902;28;6801;-70
2023/01/01 07:53:05;;;;;;;;;;;;;;;;;;4996085;28;7465;-70
2023/01/01 07:55:32;;;;;;;;;;;;;;;;;;4980653;28;7278;-70
2023/01/01 07:58:14;;;;;;;;;;;;;;;;;;4978793;28;7346;-70
2023/01/01 08:00:40;;;;;;;;;;;;;;;;;;4995689;28;7314;-70
2023/01/01 08:03:25;;;;;;;;;;;;;;;;;;4995595;28;7153;-70
2023/01/01 08:05:51;;;;;;;;;;;;;;;;;;4995543;28;7163;-70
2023/01/01 08:14:47;;;;;;;;;;;;;;;;;;4994821;28;7066;-70
2023/01/01 08:17:12;;;;;;;;;;;;;;;;;;4975831;28;8379;-70
2023/01/01 08:19:41;;;;;;;;;;;;;;;;;;4976044;28;7394;-70
2023/01/01 08:22:07;;;;;;;;;;;;;;;;;;4975926;28;7200;-70
2023/01/01 08:27:37;;;;;;;;;;;;;;;;;;4975663;28;6702;-70
2023/01/01 08:30:03;;;;;;;;;;;;;;;;;;4975844;28;6958;-70
2023/01/01 08:36:05;;;;;;;;;;;;;;;;;;4975668;28;6747;-69
2023/01/01 08:38:31;;;;;;;;;;;;;;;;;;4975862;28;7409;-70
2023/01/01 08:41:21;;;;;;;;;;;;;;;;;;4975604;28;7171;-70
2023/01/01 08:43:47;;;;;;;;;;;;;;;;;;4975440;28;9028;-70
2023/01/01 08:52:27;;;;;;;;;;;;;;;;;;4975505;28;6909;-70
2023/01/01 08:54:53;;;;;;;;;;;;;;;;;;4975776;28;7151;-70
2023/01/01 09:00:29;;;;;;;;;;;;;;;;;;4975438;28;6718;-70
2023/01/01 09:02:54;;;;;;;;;;;;;;;;;;4958864;28;6972;-70
2023/01/01 09:08:23;;;;;;;;;;;;;;;;;;4975425;28;6942;-70
2023/01/01 09:10:50;;;;;;;;;;;;;;;;;;4975542;28;7078;-70
2023/01/01 09:13:17;;;;;;;;;;;;;;;;;;4975244;28;7242;-70
2023/01/01 09:15:43;;;;;;;;;;;;;;;;;;4993469;28;7166;-70
2023/01/01 09:18:10;;;;;;;;;;;;;;;;;;5014575;28;7199;-70
2023/01/01 09:20:37;;;;;;;;;;;;;;;;;;5015727;28;7163;-70
2023/01/01 09:23:29;;;;;;;;;;;;;;;;;;5014415;28;7218;-70
2023/01/01 09:25:57;;;;;;;;;;;;;;;;;;5014214;28;9306;-70
2023/01/01 09:28:22;;;;;;;;;;;;;;;;;;5014371;28;7177;-70
2023/01/01 09:30:48;;;;;;;;;;;;;;;;;;5014512;28;7211;-70
2023/01/01 09:33:13;;;;;;;;;;;;;;;;;;5013621;28;6938;-70
2023/01/01 09:35:42;;;;;;;;;;;;;;;;;;5014394;28;7593;-70
2023/01/01 09:38:08;;;;;;;;;;;;;;;;;;5014480;28;7167;-71
2023/01/01 09:44:05;;;;;;;;;;;;;;;;;;5015087;28;6793;-70
2023/01/01 09:46:31;;;;;;;;;;;;;;;;;;5018228;28;7087;-71
2023/01/01 09:49:00;;;;;;;;;;;;;;;;;;5017776;28;6952;-71
2023/01/01 09:51:36;;;;;;;;;;;;;;;;;;5017611;28;7164;-71
2023/01/01 09:54:19;;;;;;;;;;;;;;;;;;5018271;28;7081;-71
2023/01/01 09:56:49;;;;;;;;;;;;;;;;;;5014277;28;7351;-71
2023/01/01 09:59:15;;;;;;;;;;;;;;;;;;4980515;28;8604;-71
2023/01/01 10:01:41;;;;;;;;;;;;;;;;;;4998489;28;7154;-71
2023/01/01 10:04:06;;;;;;;;;;;;;;;;;;4997970;28;7502;-71
2023/01/01 10:06:57;;;;;;;;;;;;;;;;;;4997647;28;6920;-71
2023/01/01 10:09:38;;;;;;;;;;;;;;;;;;4997793;28;7362;-71
2023/01/01 10:21:00;;;;;;;;;;;;;;;;;;4998018;28;6801;-71
2023/01/01 10:23:30;;;;;;;;;;;;;;;;;;4997448;28;7631;-71
2023/01/01 10:25:59;;;;;;;;;;;;;;;;;;4997495;28;7281;-71
2023/01/01 10:28:33;;;;;;;;;;;;;;;;;;4997452;28;6975;-71
2023/01/01 10:34:16;;;;;;;;;;;;;;;;;;4997191;28;6754;-71
2023/01/01 10:37:00;;;;;;;;;;;;;;;;;;4996994;28;7889;-71
2023/01/01 10:39:27;;;;;;;;;;;;;;;;;;4997061;28;7208;-71
2023/01/01 10:41:53;;;;;;;;;;;;;;;;;;5013748;28;7169;-71
2023/01/01 10:44:29;;;;;;;;;;;;;;;;;;5013636;28;7419;-71
2023/01/01 10:47:14;;;;;;;;;;;;;;;;;;5016331;28;6935;-71
2023/01/01 10:49:59;;;;;;;;;;;;;;;;;;5016554;28;7446;-71
2023/01/01 10:52:50;;;;;;;;;;;;;;;;;;5016371;28;7074;-71
2023/01/01 10:55:20;;;;;;;;;;;;;;;;;;5016395;28;7053;-71
2023/01/01 10:58:05;;;;;;;;;;;;;;;;;;5016415;28;7211;-71
2023/01/01 11:00:30;;;;;;;;;;;;;;;;;;5016459;28;7706;-71
2023/01/01 11:06:01;;;;;;;;;;;;;;;;;;5016135;28;6687;-71
2023/01/01 11:08:29;;;;;;;;;;;;;;;;;;5016305;28;7151;-71
2023/01/01 11:10:58;;;;;;;;;;;;;;;;;;5015926;28;7875;-71
2023/01/01 11:13:25;;;;;;;;;;;;;;;;;;5015778;28;6932;-71
2023/01/01 11:15:50;;;;;;;;;;;;;;;;;;5013178;28;7079;-71
2023/01/01 11:18:35;;;;;;;;;;;;;;;;;;5015861;28;8150;-70
2023/01/01 11:21:02;;;;;;;;;;;;;;;;;;5016112;28;7190;-71
2023/01/01 11:26:31;;;;;;;;;;;;;;;;;;4996141;28;6739;-70
2023/01/01 11:35:06;;;;;;;;;;;;;;;;;;4996747;28;7043;-70
2023/01/01 11:38:08;;;;;;;;;;;;;;;;;;4996113;28;7009;-70
2023/01/01 11:40:44;;;;;;;;;;;;;;;;;;4995977;28;7166;-70
2023/01/01 11:43:21;;;;;;;;;;;;;;;;;;4995937;28;7641;-70
2023/01/01 11:45:48;;;;;;;;;;;;;;;;;;4996905;28;7069;-70
2023/01/01 11:48:32;;;;;;;;;;;;;;;;;;4996246;28;7255;-70
2023/01/01 11:51:01;;;;;;;;;;;;;;;;;;4995880;28;7286;-70
2023/01/01 11:53:27;;;;;;;;;;;;;;;;;;4995610;28;7465;-70
2023/01/01 11:59:15;;;;;;;;;;;;;;;;;;5004441;28;6990;-70
2023/01/01 12:01:48;;;;;;;;;;;;;;;;;;5015313;28;7275;-71
2023/01/01 12:07:15;;;;;;;;;;;;;;;;;;5014649;28;6775;-71
2023/01/01 12:09:49;;;;;;;;;;;;;;;;;;5015425;28;7164;-71
2023/01/01 12:12:34;;;;;;;;;;;;;;;;;;5015065;28;7328;-71
2023/01/01 12:15:18;;;;;;;;;;;;;;;;;;5014680;28;7200;-71
2023/01/01 12:17:48;;;;;;;;;;;;;;;;;;4976077;28;7333;-71
2023/01/01 12:23:16;;;;;;;;;;;;;;;;;;4976030;28;6941;-71
2023/01/01 12:31:53;;;;;;;;;;;;;;;;;;4975687;28;7058;-70
2023/01/01 12:34:19;;;;;;;;;;;;;;;;;;4975664;28;6841;-70
2023/01/01 12:52:21;;;;;;;;;;;;;;;;;;4975709;28;7035;-70
2023/01/01 12:54:47;;;;;;;;;;;;;;;;;;4975814;28;7443;-70
2023/01/01 12:57:18;;;;;;;;;;;;;;;;;;4975761;28;7433;-70
2023/01/01 12:59:48;;;;;;;;;;;;;;;;;;4965466;28;7324;-70
2023/01/01 13:02:22;;;;;;;;;;;;;;;;;;4956331;28;7071;-70
2023/01/01 13:04:51;;;;;;;;;;;;;;;;;;4956412;29;7350;-70
2023/01/01 13:07:35;;;;;;;;;;;;;;;;;;4956407;28;6934;-70
2023/01/01 13:10:20;;;;;;;;;;;;;;;;;;4956447;28;7047;-70
2023/01/01 13:12:46;;;;;;;;;;;;;;;;;;4956193;28;7145;-70
2023/01/01 13:15:30;;;;;;;;;;;;;;;;;;4956288;29;6977;-70
2023/01/01 13:17:56;;;;;;;;;;;;;;;;;;4957071;28;7025;-70
2023/01/01 13:20:25;;;;;;;;;;;;;;;;;;4959971;28;7017;-70
2023/01/01 13:29:32;;;;;;;;;;;;;;;;;;4959942;28;6686;-70
2023/01/01 13:31:59;;;;;;;;;;;;;;;;;;4960249;28;7410;-70
2023/01/01 13:41:03;;;;;;;;;;;;;;;;;;4978720;28;7021;-70
2023/01/01 13:43:29;;;;;;;;;;;;;;;;;;4978841;28;7163;-70
2023/01/01 13:46:04;;;;;;;;;;;;;;;;;;4978940;28;7490;-70
2023/01/01 13:48:48;;;;;;;;;;;;;;;;;;4978653;28;7268;-70
2023/01/01 13:51:32;;;;;;;;;;;;;;;;;;4978608;28;7169;-70
2023/01/01 13:57:17;;;;;;;;;;;;;;;;;;4963187;28;7050;-70
2023/01/01 14:08:59;;;;;;;;;;;;;;;;;;4978628;28;7041;-70
2023/01/01 14:11:25;;;;;;;;;;;;;;;;;;4978154;28;7648;-71
2023/01/01 14:19:43;;;;;;;;;;;;;;;;;;5017846;28;6974;-71
2023/01/01 14:22:13;;;;;;;;;;;;;;;;;;5017257;28;6978;-71
2023/01/01 14:24:49;;;;;;;;;;;;;;;;;;4999104;28;8680;-71
2023/01/01 14:27:20;;;;;;;;;;;;;;;;;;5017042;28;7068;-71
2023/01/01 14:29:54;;;;;;;;;;;;;;;;;;5016377;28;7401;-71
2023/01/01 14:32:22;;;;;;;;;;;;;;;;;;5016557;28;8392;-71
2023/01/01 14:37:51;;;;;;;;;;;;;;;;;;5016749;28;6685;-71
2023/01/01 14:40:29;;;;;;;;;;;;;;;;;;5016853;28;7173;-71
2023/01/01 14:43:01;;;;;;;;;;;;;;;;;;5016996;28;7262;-71
2023/01/01 14:45:48;;;;;;;;;;;;;;;;;;5015201;28;6857;-71
2023/01/01 14:48:18;;;;;;;;;;;;;;;;;;4997119;28;7233;-71
2023/01/01 14:50:49;;;;;;;;;;;;;;;;;;4997005;28;7334;-71
2023/01/01 14:53:20;;;;;;;;;;;;;;;;;;5007221;28;7188;-71
2023/01/01 14:56:06;;;;;;;;;;;;;;;;;;5016209;28;8182;-71
2023/01/01 14:58:32;;;;;;;;;;;;;;;;;;5016504;28;7406;-71
2023/01/01 15:07:04;;;;;;;;;;;;;;;;;;4996686;28;7065;-71
2023/01/01 15:12:23;;;;;;;;;;;;;;;;;;4996806;28;6968;-71
2023/01/01 15:14:50;;;;;;;;;;;;;;;;;;4996662;28;7115;-71
2023/01/01 15:17:44;;;;;;;;;;;;;;;;;;4996419;28;7009;-71
2023/01/01 15:20:22;;;;;;;;;;;;;;;;;;4996486;28;7170;-71
2023/01/01 15:26:28;;;;;;;;;;;;;;;;;;5011290;28;6765;-71
2023/01/01 15:28:54;;;;;;;;;;;;;;;;;;5016156;28;7200;-71
2023/01/01 15:34:34;;;;;;;;;;;;;;;;;;5015660;28;6929;-71
2023/01/01 15:43:15;;;;;;;;;;;;;;;;;;5015497;28;6985;-71
2023/01/01 15:45:42;;;;;;;;;;;;;;;;;;5009630;28;7311;-71
2023/01/01 15:54:27;;;;;;;;;;;;;;;;;;4995655;28;6765;-71
2023/01/01 15:56:53;;;;;;;;;;;;;;;;;;4995848;28;7869;-71
2023/01/01 16:02:31;;;;;;;;;;;;;;;;;;4995832;28;6934;-71
2023/01/01 16:04:57;;;;;;;;;;;;;;;;;;4996365;28;7176;-71
2023/01/01 16:07:25;;;;;;;;;;;;;;;;;;4995781;28;7082;-71
2023/01/01 16:09:51;;;;;;;;;;;;;;;;;;4995495;28;6946;-71
2023/01/01 16:12:19;;;;;;;;;;;;;;;;;;4995536;28;7263;-71
2023/01/01 16:14:45;;;;;;;;;;;;;;;;;;4995518;28;6965;-71
2023/01/01 16:17:19;;;;;;;;;;;;;;;;;;4993366;28;6873;-71
2023/01/01 16:19:46;;;;;;;;;;;;;;;;;;4995886;28;7204;-71
2023/01/01 16:22:14;;;;;;;;;;;;;;;;;;4995485;28;7062;-71
2023/01/01 16:27:42;;;;;;;;;;;;;;;;;;4995197;28;6935;-71
2023/01/01 16:36:13;;;;;;;;;;;;;;;;;;4995258;28;6682;-71
2023/01/01 16:38:39;;;;;;;;;;;;;;;;;;4995311;28;7158;-71
2023/01/01 16:41:12;;;;;;;;;;;;;;;;;;4996442;28;7133;-71
2023/01/01 16:43:37;;;;;;;;;;;;;;;;;;4995049;28;7546;-71
2023/01/01 16:46:13;;;;;;;;;;;;;;;;;;5000884;28;7161;-71
2023/01/01 16:48:39;;;;;;;;;;;;;;;;;;5014558;28;7312;-71
2023/01/01 16:51:21;;;;;;;;;;;;;;;;;;5014787;28;7045;-71
2023/01/01 16:53:46;;;;;;;;;;;;;;;;;;5017009;28;7067;-71
2023/01/01 16:56:13;;;;;;;;;;;;;;;;;;5019418;28;7085;-71
2023/01/01 16:58:47;;;;;;;;;;;;;;;;;;5018464;28;7090;-71
2023/01/01 17:01:13;;;;;;;;;;;;;;;;;;5018770;28;7203;-71
2023/01/01 17:07:00;;;;;;;;;;;;;;;;;;5018501;28;6942;-71
2023/01/01 17:10:00;;;;;;;;;;;;;;;;;;5018705;28;7230;-71
2023/01/01 17:12:26;;;;;;;;;;;;;;;;;;5019119;28;7018;-71
2023/01/01 17:17:54;;;;;;;;;;;;;;;;;;5015922;28;7402;-71
2023/01/01 17:20:23;;;;;;;;;;;;;;;;;;5018099;28;7239;-71
2023/01/01 17:28:49;;;;;;;;;;;;;;;;;;5018380;28;7100;-71
2023/01/01 17:31:18;;;;;;;;;;;;;;;;;;5018089;28;6925;-71
2023/01/01 17:36:56;;;;;;;;;;;;;;;;;;5017924;28;7053;-71
2023/01/01 17:39:22;;;;;;;;;;;;;;;;;;5017975;28;7522;-71
2023/01/01 17:44:50;;;;;;;;;;;;;;;;;;4997919;28;6981;-71
2023/01/01 17:47:38;;;;;;;;;;;;;;;;;;4998272;28;7343;-71
2023/01/01 17:50:04;;;;;;;;;;;;;;;;;;4998227;28;7409;-71
2023/01/01 17:55:36;;;;;;;;;;;;;;;;;;4997987;28;6914;-71
2023/01/01 17:58:01;;;;;;;;;;;;;;;;;;4998177;28;7753;-71
2023/01/01 18:03:30;;;;;;;;;;;;;;;;;;4997820;28;6966;-71
2023/01/01 18:06:24;;;;;;;;;;;;;;;;;;4996770;28;6924;-71
2023/01/01 18:08:54;;;;;;;;;;;;;;;;;;4998626;28;7263;-71
2023/01/01 18:11:20;;;;;;;;;;;;;;;;;;4998560;28;7445;-71
2023/01/01 18:13:45;;;;;;;;;;;;;;;;;;4997676;28;6990;-71
2023/01/01 18:16:11;;;;;;;;;;;;;;;;;;4996431;28;7416;-71
2023/01/01 18:18:38;;;;;;;;;;;;;;;;;;4998492;28;7264;-71
2023/01/01 18:21:09;;;;;;;;;;;;;;;;;;4997826;28;7120;-71
2023/01/01 18:23:36;;;;;;;;;;;;;;;;;;4997600;28;7117;-71
2023/01/01 18:26:04;;;;;;;;;;;;;;;;;;4997644;28;7174;-71
2023/01/01 18:28:30;;;;;;;;;;;;;;;;;;4997651;28;7000;-71
2023/01/01 18:31:03;;;;;;;;;;;;;;;;;;4997415;28;7058;-71
2023/01/01 18:34:05;;;;;;;;;;;;;;;;;;4997399;28;7195;-71
2023/01/01 18:36:32;;;;;;;;;;;;;;;;;;4997365;28;7103;-71
2023/01/01 18:39:00;;;;;;;;;;;;;;;;;;4997448;28;6981;-71
2023/01/01 18:47:31;;;;;;;;;;;;;;;;;;4996895;28;6994;-71
2023/01/01 18:53:34;;;;;;;;;;;;;;;;;;5016293;28;6692;-71
2023/01/01 18:56:10;;;;;;;;;;;;;;;;;;5016300;28;7095;-71
2023/01/01 19:01:50;;;;;;;;;;;;;;;;;;4999037;28;6942;-71
2023/01/01 19:04:18;;;;;;;;;;;;;;;;;;4999005;28;6996;-71
2023/01/01 19:06:44;;;;;;;;;;;;;;;;;;5009248;28;7169;-71
2023/01/01 19:09:16;;;;;;;;;;;;;;;;;;5009373;28;7275;-71
2023/01/01 19:11:51;;;;;;;;;;;;;;;;;;5002504;28;7219;-71
2023/01/01 19:14:18;;;;;;;;;;;;;;;;;;5008015;28;7126;-71
2023/01/01 19:16:46;;;;;;;;;;;;;;;;;;5008082;28;6984;-71
2023/01/01 19:19:15;;;;;;;;;;;;;;;;;;5012565;28;7002;-71
2023/01/01 19:21:59;;;;;;;;;;;;;;;;;;5006547;28;7521;-71
2023/01/01 19:24:26;;;;;;;;;;;;;;;;;;5008407;28;7199;-71
2023/01/01 19:26:55;;;;;;;;;;;;;;;;;;5015286;28;7194;-71
2023/01/01 19:29:47;;;;;;;;;;;;;;;;;;5016009;28;7168;-71
2023/01/01 19:32:13;;;;;;;;;;;;;;;;;;5015702;28;7218;-71
2023/01/01 19:34:41;;;;;;;;;;;;;;;;;;5015583;28;8190;-71
2023/01/01 19:37:07;;;;;;;;;;;;;;;;;;5015911;28;7117;-71
2023/01/01 19:39:35;;;;;;;;;;;;;;;;;;5015387;28;7172;-71
2023/01/01 19:42:05;;;;;;;;;;;;;;;;;;5015702;28;7204;-71
2023/01/01 19:44:32;;;;;;;;;;;;;;;;;;5015683;28;7223;-71
2023/01/01 19:46:59;;;;;;;;;;;;;;;;;;5015365;28;7176;-71
2023/01/01 19:49:25;;;;;;;;;;;;;;;;;;5015608;28;7372;-71
2023/01/01 19:51:54;;;;;;;;;;;;;;;;;;5015419;28;7145;-71
2023/01/01 19:57:23;;;;;;;;;;;;;;;;;;5015292;28;6679;-71
2023/01/01 19:59:48;;;;;;;;;;;;;;;;;;5015544;28;7161;-71
2023/01/01 20:02:14;;;;;;;;;;;;;;;;;;5016068;28;7153;-71
2023/01/01 20:04:39;;;;;;;;;;;;;;;;;;5015484;28;7190;-71
2023/01/01 20:07:26;;;;;;;;;;;;;;;;;;5015295;28;7160;-71
2023/01/01 20:09:52;;;;;;;;;;;;;;;;;;5015933;28;7145;-71
2023/01/01 20:12:17;;;;;;;;;;;;;;;;;;5015922;28;7235;-71
2023/01/01 20:14:57;;;;;;;;;;;;;;;;;;5014876;28;7946;-71
2023/01/01 20:17:26;;;;;;;;;;;;;;;;;;5014696;28;6958;-71
2023/01/01 20:19:53;;;;;;;;;;;;;;;;;;5015127;28;7391;-71
2023/01/01 20:22:20;;;;;;;;;;;;;;;;;;5015536;28;7487;-71
2023/01/01 20:24:47;;;;;;;;;;;;;;;;;;5014804;28;6977;-71
2023/01/01 20:27:16;;;;;;;;;;;;;;;;;;5014353;28;6964;-71
2023/01/01 20:38:45;;;;;;;;;;;;;;;;;;5014840;28;7008;-71
2023/01/01 20:46:57;;;;;;;;;;;;;;;;;;5015126;28;6954;-73
2023/01/01 20:55:42;;;;;;;;;;;;;;;;;;4995071;28;6983;-72
2023/01/01 20:58:07;;;;;;;;;;;;;;;;;;4995144;28;7154;-72
2023/01/01 21:00:33;;;;;;;;;;;;;;;;;;4995325;28;7024;-72
2023/01/01 21:03:11;;;;;;;;;;;;;;;;;;4995031;28;7458;-72
2023/01/01 21:05:37;;;;;;;;;;;;;;;;;;4977546;28;8494;-71
2023/01/01 21:08:02;;;;;;;;;;;;;;;;;;5011883;28;6983;-71
2023/01/01 21:10:44;;;;;;;;;;;;;;;;;;5014640;28;7289;-71
2023/01/01 21:13:10;;;;;;;;;;;;;;;;;;5014844;28;7134;-71
2023/01/01 21:15:35;;;;;;;;;;;;;;;;;;5014502;28;6990;-71
2023/01/01 21:18:03;;;;;;;;;;;;;;;;;;5012345;28;7000;-71
2023/01/01 21:20:59;;;;;;;;;;;;;;;;;;5014526;28;7148;-71
2023/01/01 21:23:26;;;;;;;;;;;;;;;;;;5014593;28;7349;-71
2023/01/01 21:25:52;;;;;;;;;;;;;;;;;;5014253;28;7216;-71
2023/01/01 21:28:27;;;;;;;;;;;;;;;;;;4994969;28;7351;-71
2023/01/01 21:30:56;;;;;;;;;;;;;;;;;;4995061;28;7162;-71
2023/01/01 21:33:26;;;;;;;;;;;;;;;;;;5013284;28;7099;-71
2023/01/01 21:35:52;;;;;;;;;;;;;;;;;;5014406;28;7176;-71
2023/01/01 21:38:28;;;;;;;;;;;;;;;;;;5014467;28;7184;-71
2023/01/01 21:40:57;;;;;;;;;;;;;;;;;;5018109;28;7161;-71
2023/01/01 21:43:42;;;;;;;;;;;;;;;;;;5017950;28;8235;-71
2023/01/01 21:46:08;;;;;;;;;;;;;;;;;;5012860;28;6969;-71
2023/01/01 21:48:33;;;;;;;;;;;;;;;;;;4998244;28;7440;-71
2023/01/01 21:54:08;;;;;;;;;;;;;;;;;;4997952;28;6747;-72
2023/01/01 21:59:53;;;;;;;;;;;;;;;;;;4998104;28;7032;-72
2023/01/01 22:02:27;;;;;;;;;;;;;;;;;;4997994;28;7466;-72
2023/01/01 22:04:53;;;;;;;;;;;;;;;;;;4997960;28;7184;-72
2023/01/01 22:10:08;;;;;;;;;;;;;;;;;;4998365;28;6926;-72
2023/01/01 22:12:35;;;;;;;;;;;;;;;;;;4997801;28;7114;-72
2023/01/01 22:18:29;;;;;;;;;;;;;;;;;;4996792;28;6811;-71
2023/01/01 22:21:07;;;;;;;;;;;;;;;;;;4997806;28;7940;-71
2023/01/01 22:24:01;;;;;;;;;;;;;;;;;;4997636;28;7323;-71
2023/01/01 22:26:29;;;;;;;;;;;;;;;;;;4998183;28;7057;-71
2023/01/01 22:32:16;;;;;;;;;;;;;;;;;;4997287;28;6693;-71
2023/01/01 22:34:42;;;;;;;;;;;;;;;;;;4998305;28;7175;-71
2023/01/01 22:37:15;;;;;;;;;;;;;;;;;;4997224;28;6820;-71
2023/01/01 22:42:42;;;;;;;;;;;;;;;;;;4997620;28;6959;-71
2023/01/01 22:48:22;;;;;;;;;;;;;;;;;;4997385;28;6825;-71
2023/01/01 22:50:49;;;;;;;;;;;;;;;;;;4995261;28;7192;-71
2023/01/01 23:08:47;;;;;;;;;;;;;;;;;;4996871;28;6684;-71
2023/01/01 23:11:13;;;;;;;;;;;;;;;;;;4997423;28;7349;-71
2023/01/01 23:16:45;;;;;;;;;;;;;;;;;;4995528;28;6685;-71
2023/01/01 23:19:10;;;;;;;;;;;;;;;;;;4977236;28;7175;-71
2023/01/01 23:21:52;;;;;;;;;;;;;;;;;;4977043;28;6935;-71
2023/01/01 23:24:21;;;;;;;;;;;;;;;;;;4976852;28;7553;-71
2023/01/01 23:26:49;;;;;;;;;;;;;;;;;;4976783;28;6982;-71
2023/01/01 23:29:16;;;;;;;;;;;;;;;;;;4977045;28;7167;-71
2023/01/01 23:31:59;;;;;;;;;;;;;;;;;;4976824;28;7194;-71
2023/01/01 23:34:25;;;;;;;;;;;;;;;;;;4976936;28;7171;-71
2023/01/01 23:37:02;;;;;;;;;;;;;;;;;;4976897;28;7078;-71
2023/01/01 23:39:27;;;;;;;;;;;;;;;;;;4977175;28;7151;-71